Time;durP1;ratioP1;P1;durP2;ratioP2;P2;SDS_P1;SDS_P2;PMS_P1;PMS_P2;Temp;Humidity;BMP_temperature;BMP_pressure;BME280_temperature;BME280_humidity;BME280_pressure;Samples;Min_cycle;Max_cycle;Signal;HPM_P1;HPM_P2
2022/01/31 00:02:04;;;;;;;;;;;4.40;61.50;;;;;;5056050;28;19918;-85
2022/01/31 00:04:30;;;;;;;;;;;4.40;62.20;;;;;;5047567;28;20339;-86
2022/01/31 00:06:57;;;;;;;;;;;4.40;62.20;;;;;;5056710;28;19912;-85
2022/01/31 00:09:23;;;;;;;;;;;4.40;62.80;;;;;;5056329;28;19908;-86
2022/01/31 00:12:00;;;;;;;;;;;4.30;63.30;;;;;;5056688;28;19958;-86
2022/01/31 00:14:39;;;;;;;;;;;4.40;63.50;;;;;;5054187;28;19912;-86
2022/01/31 00:17:09;;;;;;;;;;;4.30;63.50;;;;;;5056315;28;20102;-86
2022/01/31 00:19:38;;;;;;;;;;;4.40;63.00;;;;;;5056150;28;19916;-84
2022/01/31 00:22:11;;;;;;;;;;;4.40;63.10;;;;;;5073854;28;19908;-85
2022/01/31 00:24:37;;;;;;;;;;;4.40;63.20;;;;;;5055685;28;20046;-86
2022/01/31 00:27:03;;;;;;;;;;;4.40;63.40;;;;;;5075110;28;20357;-86
2022/01/31 00:29:29;;;;;;;;;;;4.40;63.50;;;;;;5056603;28;19958;-84
2022/01/31 00:31:55;;;;;;;;;;;4.40;63.70;;;;;;5074296;28;19912;-85
2022/01/31 00:34:20;;;;;;;;;;;4.40;63.90;;;;;;5056177;28;19909;-85
2022/01/31 00:36:46;;;;;;;;;;;4.40;64.20;;;;;;5065155;28;19952;-85
2022/01/31 00:39:11;;;;;;;;;;;4.40;64.40;;;;;;5056630;28;19908;-85
2022/01/31 00:41:37;;;;;;;;;;;4.40;64.80;;;;;;5055477;28;19908;-86
2022/01/31 00:44:16;;;;;;;;;;;4.40;66.00;;;;;;5055781;28;19958;-85
2022/01/31 00:46:48;;;;;;;;;;;4.30;67.00;;;;;;5055569;28;19972;-85
2022/01/31 00:50:06;;;;;;;;;;;4.10;67.70;;;;;;5058278;28;19948;-86
2022/01/31 00:52:03;;;;;;;;;;;4.00;69.60;;;;;;5065335;28;19912;-84
2022/01/31 00:54:29;;;;;;;;;;;3.80;70.60;;;;;;5055979;28;19908;-85
2022/01/31 00:56:55;;;;;;;;;;;3.70;71.80;;;;;;5055645;28;19908;-85
2022/01/31 00:59:21;;;;;;;;;;;3.50;72.60;;;;;;5056353;28;19916;-85
2022/01/31 01:01:49;;;;;;;;;;;3.40;73.10;;;;;;5056026;28;19912;-83
2022/01/31 01:04:15;;;;;;;;;;;3.30;73.70;;;;;;5055600;28;19919;-84
2022/01/31 01:06:41;;;;;;;;;;;3.30;74.30;;;;;;5056484;28;19908;-86
2022/01/31 01:09:07;;;;;;;;;;;3.20;74.30;;;;;;5056233;28;19959;-85
2022/01/31 01:11:33;;;;;;;;;;;3.20;74.30;;;;;;5056158;28;19905;-85
2022/01/31 01:13:59;;;;;;;;;;;3.20;74.30;;;;;;5056525;28;20406;-85
2022/01/31 01:16:24;;;;;;;;;;;3.20;74.10;;;;;;5056209;28;19908;-86
2022/01/31 01:18:49;;;;;;;;;;;3.30;73.60;;;;;;5056036;28;19908;-86
2022/01/31 01:21:17;;;;;;;;;;;3.30;72.90;;;;;;5056009;28;19948;-83
2022/01/31 01:23:43;;;;;;;;;;;3.30;72.10;;;;;;5056735;28;19912;-84
2022/01/31 01:26:09;;;;;;;;;;;3.40;71.00;;;;;;5058679;28;19981;-86
2022/01/31 01:28:34;;;;;;;;;;;3.40;70.00;;;;;;5059220;28;19908;-84
2022/01/31 01:31:00;;;;;;;;;;;3.50;69.10;;;;;;5058239;28;19909;-85
2022/01/31 01:33:26;;;;;;;;;;;3.60;67.90;;;;;;5056260;28;20349;-86
2022/01/31 01:35:53;;;;;;;;;;;3.60;67.90;;;;;;5059741;28;19958;-85
2022/01/31 01:38:19;;;;;;;;;;;3.60;67.50;;;;;;5078037;28;19915;-85
2022/01/31 01:40:45;;;;;;;;;;;3.70;66.10;;;;;;5059441;28;19908;-85
2022/01/31 01:43:12;;;;;;;;;;;3.70;65.80;;;;;;5059223;28;20022;-85
2022/01/31 01:45:38;;;;;;;;;;;3.80;65.70;;;;;;5064707;28;20410;-85
2022/01/31 01:48:06;;;;;;;;;;;3.70;65.40;;;;;;5060638;28;19961;-85
2022/01/31 01:50:32;;;;;;;;;;;3.80;65.20;;;;;;5077804;28;19987;-85
2022/01/31 01:53:00;;;;;;;;;;;3.80;65.10;;;;;;5060358;28;19908;-85
2022/01/31 01:55:26;;;;;;;;;;;3.80;64.80;;;;;;5077401;28;19943;-85
2022/01/31 01:57:51;;;;;;;;;;;3.70;64.90;;;;;;5059484;28;19908;-85
2022/01/31 02:00:24;;;;;;;;;;;3.80;66.00;;;;;;5078231;28;19908;-85
2022/01/31 02:02:49;;;;;;;;;;;3.70;65.80;;;;;;5059355;28;19954;-85
2022/01/31 02:05:15;;;;;;;;;;;3.60;66.10;;;;;;5059543;28;19920;-86
2022/01/31 02:07:40;;;;;;;;;;;3.60;65.80;;;;;;5059948;28;19915;-86
2022/01/31 02:10:06;;;;;;;;;;;3.60;65.50;;;;;;5059807;28;20008;-83
2022/01/31 02:12:42;;;;;;;;;;;3.60;65.20;;;;;;5058954;28;19954;-86
2022/01/31 02:15:08;;;;;;;;;;;3.60;64.60;;;;;;5052773;28;19970;-85
2022/01/31 02:17:34;;;;;;;;;;;3.70;64.20;;;;;;5076212;28;20349;-86
2022/01/31 02:19:59;;;;;;;;;;;3.80;63.90;;;;;;5059989;28;19908;-86
2022/01/31 02:22:25;;;;;;;;;;;3.80;63.70;;;;;;5059997;28;20273;-85
2022/01/31 02:24:50;;;;;;;;;;;3.80;62.80;;;;;;5059156;28;19957;-86
2022/01/31 02:27:23;;;;;;;;;;;3.80;63.20;;;;;;5059713;28;19923;-85
2022/01/31 02:29:48;;;;;;;;;;;3.80;62.70;;;;;;5058124;28;19999;-85
2022/01/31 02:32:15;;;;;;;;;;;3.80;62.20;;;;;;5068509;28;20423;-85
2022/01/31 02:34:41;;;;;;;;;;;3.80;62.10;;;;;;5060908;28;19917;-85
2022/01/31 02:37:10;;;;;;;;;;;3.80;62.40;;;;;;5081372;28;19909;-85
2022/01/31 02:39:35;;;;;;;;;;;3.80;62.70;;;;;;5060926;28;20399;-84
2022/01/31 02:42:01;;;;;;;;;;;3.80;62.70;;;;;;5061860;28;19999;-85
2022/01/31 02:44:26;;;;;;;;;;;3.80;62.30;;;;;;5069699;28;19950;-84
2022/01/31 02:46:52;;;;;;;;;;;3.80;62.20;;;;;;5070379;28;19909;-84
2022/01/31 02:49:21;;;;;;;;;;;3.80;61.50;;;;;;5073479;28;19915;-85
2022/01/31 02:51:50;;;;;;;;;;;3.70;61.40;;;;;;5079284;28;19912;-85
2022/01/31 02:54:16;;;;;;;;;;;3.80;61.10;;;;;;5076491;28;19908;-85
2022/01/31 02:56:41;;;;;;;;;;;3.70;61.30;;;;;;5075152;28;19931;-85
2022/01/31 02:59:07;;;;;;;;;;;3.70;61.20;;;;;;5076474;28;19940;-86
2022/01/31 03:01:36;;;;;;;;;;;3.60;61.40;;;;;;5097602;28;19914;-84
2022/01/31 03:04:02;;;;;;;;;;;3.50;61.20;;;;;;5094225;28;19987;-86
2022/01/31 03:06:27;;;;;;;;;;;3.50;60.90;;;;;;5078775;28;19907;-84
2022/01/31 03:08:53;;;;;;;;;;;3.40;61.00;;;;;;5072056;28;19940;-84
2022/01/31 03:11:18;;;;;;;;;;;3.30;61.30;;;;;;5060811;28;20365;-84
2022/01/31 03:13:44;;;;;;;;;;;3.30;61.30;;;;;;5060190;28;19905;-85
2022/01/31 03:16:09;;;;;;;;;;;3.20;61.60;;;;;;5059203;28;19909;-85
2022/01/31 03:18:35;;;;;;;;;;;3.20;61.60;;;;;;5058210;28;19974;-85
2022/01/31 03:21:00;;;;;;;;;;;3.30;61.10;;;;;;5058461;28;19915;-84
2022/01/31 03:23:26;;;;;;;;;;;3.20;61.00;;;;;;5057889;28;19908;-85
2022/01/31 03:25:51;;;;;;;;;;;3.20;60.90;;;;;;5057540;28;19969;-84
2022/01/31 03:28:17;;;;;;;;;;;3.20;61.20;;;;;;5057314;28;19970;-84
2022/01/31 03:30:42;;;;;;;;;;;3.20;61.20;;;;;;5075034;28;20369;-84
2022/01/31 03:33:08;;;;;;;;;;;3.30;61.00;;;;;;5075164;28;19950;-84
2022/01/31 03:35:33;;;;;;;;;;;3.30;60.70;;;;;;5053465;28;20575;-84
2022/01/31 03:37:59;;;;;;;;;;;3.20;60.80;;;;;;5057172;28;19944;-84
2022/01/31 03:40:24;;;;;;;;;;;3.30;60.80;;;;;;5056787;28;19908;-85
2022/01/31 03:42:50;;;;;;;;;;;3.30;61.00;;;;;;5056450;28;19909;-85
2022/01/31 03:45:15;;;;;;;;;;;3.30;60.90;;;;;;5056917;28;19971;-85
2022/01/31 03:47:44;;;;;;;;;;;3.30;60.60;;;;;;5056213;28;19915;-83
2022/01/31 03:50:11;;;;;;;;;;;3.30;60.50;;;;;;5056550;28;20369;-84
2022/01/31 03:52:36;;;;;;;;;;;3.20;60.50;;;;;;5056360;28;19915;-85
2022/01/31 03:55:02;;;;;;;;;;;3.20;60.80;;;;;;5056593;28;19908;-85
2022/01/31 03:57:28;;;;;;;;;;;3.20;60.90;;;;;;5073449;28;20352;-85
2022/01/31 03:59:54;;;;;;;;;;;3.30;60.80;;;;;;5056666;28;20454;-85
2022/01/31 04:02:19;;;;;;;;;;;3.30;60.60;;;;;;5056372;28;19908;-84
2022/01/31 04:04:45;;;;;;;;;;;3.30;60.50;;;;;;5056302;28;19923;-85
2022/01/31 04:07:11;;;;;;;;;;;3.30;60.40;;;;;;5056340;28;19916;-84
2022/01/31 04:09:36;;;;;;;;;;;3.30;60.50;;;;;;5055030;28;19916;-84
2022/01/31 04:12:02;;;;;;;;;;;3.30;60.50;;;;;;5056066;28;19912;-82
2022/01/31 04:14:27;;;;;;;;;;;3.30;60.30;;;;;;5074162;28;19914;-84
2022/01/31 04:16:55;;;;;;;;;;;3.30;60.50;;;;;;5056298;28;19915;-84
2022/01/31 04:19:20;;;;;;;;;;;3.30;60.70;;;;;;5056314;28;19962;-86
2022/01/31 04:21:46;;;;;;;;;;;3.30;60.70;;;;;;5056792;28;19913;-85
2022/01/31 04:24:18;;;;;;;;;;;3.30;60.70;;;;;;5066806;28;19930;-85
2022/01/31 04:26:55;;;;;;;;;;;3.30;60.80;;;;;;5055662;28;19917;-84
2022/01/31 04:29:20;;;;;;;;;;;3.30;60.80;;;;;;5050867;28;19912;-83
2022/01/31 04:31:49;;;;;;;;;;;3.20;60.80;;;;;;5055901;28;20034;-84
2022/01/31 04:34:14;;;;;;;;;;;3.10;61.00;;;;;;5055910;28;19915;-85
2022/01/31 04:36:40;;;;;;;;;;;3.10;61.30;;;;;;5061455;28;19909;-84
2022/01/31 04:39:05;;;;;;;;;;;3.00;61.40;;;;;;5055864;28;19912;-85
2022/01/31 04:41:31;;;;;;;;;;;3.10;61.40;;;;;;5055791;28;19987;-85
2022/01/31 04:44:02;;;;;;;;;;;3.10;61.60;;;;;;5055652;28;19913;-85
2022/01/31 04:46:29;;;;;;;;;;;3.10;61.60;;;;;;5047950;28;19912;-85
2022/01/31 04:48:57;;;;;;;;;;;3.10;61.70;;;;;;5055938;28;19980;-85
2022/01/31 04:51:23;;;;;;;;;;;3.20;61.80;;;;;;5055045;28;19943;-85
2022/01/31 04:53:49;;;;;;;;;;;3.20;61.90;;;;;;5073696;28;19905;-85
2022/01/31 04:56:14;;;;;;;;;;;3.20;61.80;;;;;;5055400;28;20281;-85
2022/01/31 04:58:40;;;;;;;;;;;3.20;61.90;;;;;;5055579;28;19909;-83
2022/01/31 05:01:06;;;;;;;;;;;3.20;62.00;;;;;;5052800;28;19920;-85
2022/01/31 05:03:31;;;;;;;;;;;3.20;62.00;;;;;;5055221;28;19979;-85
2022/01/31 05:05:57;;;;;;;;;;;3.20;61.90;;;;;;5055380;28;19908;-85
2022/01/31 05:08:26;;;;;;;;;;;3.30;61.70;;;;;;5055501;28;19950;-85
2022/01/31 05:10:51;;;;;;;;;;;3.30;61.30;;;;;;5059432;28;19908;-86
2022/01/31 05:13:17;;;;;;;;;;;3.30;61.20;;;;;;5059614;28;19916;-84
2022/01/31 05:15:43;;;;;;;;;;;3.40;61.30;;;;;;5059605;28;19908;-86
2022/01/31 05:18:09;;;;;;;;;;;3.40;61.20;;;;;;5059802;28;19915;-85
2022/01/31 05:20:35;;;;;;;;;;;3.40;61.20;;;;;;5059441;28;19908;-85
2022/01/31 05:23:00;;;;;;;;;;;3.40;61.30;;;;;;5077669;28;20361;-85
2022/01/31 05:25:26;;;;;;;;;;;3.50;61.20;;;;;;5062454;28;19920;-86
2022/01/31 05:27:51;;;;;;;;;;;3.50;61.20;;;;;;5059374;28;19952;-86
2022/01/31 05:30:17;;;;;;;;;;;3.50;61.00;;;;;;5076022;28;19999;-85
2022/01/31 05:32:43;;;;;;;;;;;3.50;61.10;;;;;;5061068;28;19893;-84
2022/01/31 05:35:09;;;;;;;;;;;3.50;60.60;;;;;;5059167;28;19936;-85
2022/01/31 05:37:35;;;;;;;;;;;3.50;60.70;;;;;;5059478;28;19908;-84
2022/01/31 05:40:01;;;;;;;;;;;3.50;60.80;;;;;;5059355;28;19914;-85
2022/01/31 05:42:26;;;;;;;;;;;3.40;60.80;;;;;;5059556;28;20331;-85
2022/01/31 05:44:52;;;;;;;;;;;3.40;60.90;;;;;;5056278;28;19916;-86
2022/01/31 05:47:17;;;;;;;;;;;3.30;61.00;;;;;;5058739;28;19995;-85
2022/01/31 05:49:43;;;;;;;;;;;3.30;61.20;;;;;;5064953;28;19943;-85
2022/01/31 05:52:08;;;;;;;;;;;3.20;61.40;;;;;;5058431;28;19915;-83
2022/01/31 05:54:36;;;;;;;;;;;3.20;61.50;;;;;;5057587;28;19908;-85
2022/01/31 05:57:05;;;;;;;;;;;3.20;61.40;;;;;;5057537;28;19908;-85
2022/01/31 05:59:30;;;;;;;;;;;3.10;61.50;;;;;;5059095;28;20340;-85
2022/01/31 06:01:57;;;;;;;;;;;3.10;61.60;;;;;;5059746;28;19952;-84
2022/01/31 06:04:28;;;;;;;;;;;3.00;61.70;;;;;;5060505;28;19919;-84
2022/01/31 06:06:53;;;;;;;;;;;3.00;61.80;;;;;;5077009;28;19916;-85
2022/01/31 06:09:27;;;;;;;;;;;2.90;61.90;;;;;;5074532;28;19920;-84
2022/01/31 06:11:53;;;;;;;;;;;2.90;62.00;;;;;;5188611;22;19907;-83
2022/01/31 06:14:39;;;;;;;;;;;2.80;62.10;;;;;;5110699;28;19912;-85
2022/01/31 06:17:26;;;;;;;;;;;2.80;62.20;;;;;;5108432;28;20006;-84
2022/01/31 06:19:51;;;;;;;;;;;2.80;62.30;;;;;;5108466;28;19900;-84
2022/01/31 06:22:43;;;;;;;;;;;2.80;62.50;;;;;;5110468;28;19942;-85
2022/01/31 06:34:41;;;;;;;;;;;2.80;62.70;;;;;;5268690;22;19927;-85
2022/01/31 06:37:16;;;;;;;;;;;2.80;62.80;;;;;;5063655;28;19892;-88
2022/01/31 06:43:25;;;;;;;;;;;2.80;62.80;;;;;;5200108;22;20256;-86
2022/01/31 06:48:56;;;;;;;;;;;2.90;62.80;;;;;;5016901;28;19917;-88
2022/01/31 06:51:28;;;;;;;;;;;3.00;62.70;;;;;;4985517;28;19910;-86
2022/01/31 07:06:37;;;;;;;;;;;3.00;62.90;;;;;;5024302;28;19970;-87
2022/01/31 07:09:07;;;;;;;;;;;3.10;63.00;;;;;;5002765;28;19913;-87
2022/01/31 07:11:42;;;;;;;;;;;3.10;63.10;;;;;;4999847;28;19925;-87
2022/01/31 07:17:09;;;;;;;;;;;3.20;63.10;;;;;;5073710;28;20364;-88
2022/01/31 07:19:42;;;;;;;;;;;3.20;63.10;;;;;;5059584;28;19908;-88
2022/01/31 07:25:31;;;;;;;;;;;3.30;63.10;;;;;;5063497;28;19959;-88
2022/01/31 07:27:58;;;;;;;;;;;3.30;63.10;;;;;;5054369;28;19962;-86
2022/01/31 07:30:23;;;;;;;;;;;3.30;63.20;;;;;;5060205;28;19908;-88
2022/01/31 07:32:49;;;;;;;;;;;3.30;63.20;;;;;;5055807;28;19915;-88
2022/01/31 07:35:15;;;;;;;;;;;3.30;63.20;;;;;;5061244;28;19919;-89
2022/01/31 07:37:40;;;;;;;;;;;3.40;63.20;;;;;;5059311;28;19916;-88
2022/01/31 07:40:06;;;;;;;;;;;3.40;63.20;;;;;;5058737;28;20314;-87
2022/01/31 07:42:32;;;;;;;;;;;3.40;63.10;;;;;;5060172;28;19909;-88
2022/01/31 07:44:57;;;;;;;;;;;3.50;63.10;;;;;;5057268;28;20365;-92
2022/01/31 07:47:23;;;;;;;;;;;3.50;63.10;;;;;;5061144;28;20353;-85
2022/01/31 07:49:50;;;;;;;;;;;3.60;63.00;;;;;;5057536;28;20292;-85
2022/01/31 07:52:16;;;;;;;;;;;3.70;62.80;;;;;;5058864;28;19913;-85
2022/01/31 07:54:43;;;;;;;;;;;3.70;62.60;;;;;;5054794;28;19993;-85
2022/01/31 07:57:09;;;;;;;;;;;3.80;62.40;;;;;;5047365;28;20381;-85
2022/01/31 07:59:34;;;;;;;;;;;3.80;62.30;;;;;;5059393;28;19908;-84
2022/01/31 08:02:00;;;;;;;;;;;3.80;62.20;;;;;;5058365;28;19909;-83
2022/01/31 08:04:25;;;;;;;;;;;3.80;62.00;;;;;;5056497;28;20301;-84
2022/01/31 08:06:51;;;;;;;;;;;3.90;61.70;;;;;;5056766;28;19908;-86
2022/01/31 08:09:26;;;;;;;;;;;3.80;61.70;;;;;;5057787;28;19915;-86
2022/01/31 08:11:52;;;;;;;;;;;3.90;61.90;;;;;;5060093;28;19983;-85
2022/01/31 08:14:19;;;;;;;;;;;3.90;61.70;;;;;;5062033;28;19946;-85
2022/01/31 08:16:44;;;;;;;;;;;4.00;61.60;;;;;;5077548;28;19908;-85
2022/01/31 08:19:13;;;;;;;;;;;4.10;61.50;;;;;;5062002;28;20376;-84
2022/01/31 08:21:40;;;;;;;;;;;4.10;61.60;;;;;;5082222;28;19940;-85
2022/01/31 08:24:06;;;;;;;;;;;4.10;61.60;;;;;;5037090;28;20294;-84
2022/01/31 08:26:32;;;;;;;;;;;4.30;61.20;;;;;;5045955;28;19951;-84
2022/01/31 08:29:05;;;;;;;;;;;4.30;61.10;;;;;;5052203;28;20384;-84
2022/01/31 08:36:26;;;;;;;;;;;4.30;61.00;;;;;;5063352;28;19912;-84
2022/01/31 08:38:52;;;;;;;;;;;4.30;60.90;;;;;;5046556;28;20332;-87
2022/01/31 08:41:18;;;;;;;;;;;4.30;60.90;;;;;;5056704;28;19908;-86
2022/01/31 08:43:49;;;;;;;;;;;4.40;61.00;;;;;;5057516;28;19963;-86
2022/01/31 08:46:15;;;;;;;;;;;4.40;60.90;;;;;;5060828;28;20273;-85
2022/01/31 08:48:40;;;;;;;;;;;4.40;60.60;;;;;;5061083;28;19905;-85
2022/01/31 08:54:09;;;;;;;;;;;4.40;60.60;;;;;;5079116;28;19914;-85
2022/01/31 08:56:40;;;;;;;;;;;4.40;60.50;;;;;;5079434;28;20345;-86
2022/01/31 08:59:07;;;;;;;;;;;4.50;60.50;;;;;;5078773;28;19908;-85
2022/01/31 09:01:33;;;;;;;;;;;4.50;60.30;;;;;;5060497;28;19908;-85
2022/01/31 09:04:04;;;;;;;;;;;4.50;60.00;;;;;;5060382;28;19912;-85
2022/01/31 09:06:32;;;;;;;;;;;4.50;59.80;;;;;;5061193;28;19911;-85
2022/01/31 09:09:08;;;;;;;;;;;4.50;59.90;;;;;;5078570;28;20341;-86
2022/01/31 09:11:36;;;;;;;;;;;4.50;59.90;;;;;;5061187;28;19948;-85
2022/01/31 09:14:01;;;;;;;;;;;4.60;59.90;;;;;;5061373;28;20311;-86
2022/01/31 09:16:27;;;;;;;;;;;4.60;59.90;;;;;;5062345;28;19905;-86
2022/01/31 09:18:52;;;;;;;;;;;4.60;60.00;;;;;;5062290;28;19911;-86
2022/01/31 09:21:18;;;;;;;;;;;4.70;60.10;;;;;;5078781;28;19912;-86
2022/01/31 09:23:43;;;;;;;;;;;4.70;60.00;;;;;;5063389;28;19911;-86
2022/01/31 09:26:09;;;;;;;;;;;4.80;60.10;;;;;;5074608;28;20414;-86
2022/01/31 09:28:36;;;;;;;;;;;4.80;59.80;;;;;;5080978;28;19905;-86
2022/01/31 09:31:02;;;;;;;;;;;4.80;59.50;;;;;;5082571;28;19956;-86
2022/01/31 09:33:28;;;;;;;;;;;4.90;59.50;;;;;;5082867;28;19897;-86
2022/01/31 09:35:54;;;;;;;;;;;4.90;59.50;;;;;;5083310;28;19940;-85
2022/01/31 09:38:23;;;;;;;;;;;4.90;59.10;;;;;;5082289;28;19896;-85
2022/01/31 09:40:49;;;;;;;;;;;4.90;59.10;;;;;;5081683;28;19909;-86
2022/01/31 09:48:36;;;;;;;;;;;4.90;58.80;;;;;;5083786;28;19908;-84
2022/01/31 09:51:04;;;;;;;;;;;4.90;58.80;;;;;;5063723;28;19904;-86
2022/01/31 09:53:30;;;;;;;;;;;4.90;59.00;;;;;;5063069;28;19915;-85
2022/01/31 09:55:56;;;;;;;;;;;4.90;58.80;;;;;;5061639;28;19995;-86
2022/01/31 09:58:24;;;;;;;;;;;4.90;58.80;;;;;;5060571;28;20377;-86
2022/01/31 10:01:19;;;;;;;;;;;4.90;58.40;;;;;;5021626;28;19932;-86
2022/01/31 10:03:49;;;;;;;;;;;4.90;58.40;;;;;;5004795;28;19905;-85
2022/01/31 10:06:20;;;;;;;;;;;4.90;58.40;;;;;;5037698;28;19912;-86
2022/01/31 10:08:45;;;;;;;;;;;4.90;58.50;;;;;;5038247;28;19913;-87
2022/01/31 10:11:29;;;;;;;;;;;5.00;58.60;;;;;;5038935;28;20346;-87
2022/01/31 10:16:51;;;;;;;;;;;5.10;58.20;;;;;;5080473;28;19942;-86
2022/01/31 10:19:17;;;;;;;;;;;5.10;58.20;;;;;;5062557;28;19904;-88
2022/01/31 10:21:53;;;;;;;;;;;5.10;58.30;;;;;;5062823;28;19954;-87
2022/01/31 10:24:19;;;;;;;;;;;5.00;58.40;;;;;;5060772;28;20306;-87
2022/01/31 10:26:44;;;;;;;;;;;5.10;58.50;;;;;;5060925;28;19909;-88
2022/01/31 10:29:14;;;;;;;;;;;5.10;58.60;;;;;;5061419;28;19911;-87
2022/01/31 10:31:53;;;;;;;;;;;5.20;58.70;;;;;;5061285;28;19931;-87
2022/01/31 10:34:21;;;;;;;;;;;5.20;58.60;;;;;;5061234;28;19912;-87
2022/01/31 10:36:46;;;;;;;;;;;5.20;58.70;;;;;;5060479;28;19908;-87
2022/01/31 10:39:15;;;;;;;;;;;5.20;58.80;;;;;;5060555;28;19926;-86
2022/01/31 10:53:06;;;;;;;;;;;5.20;58.50;;;;;;5019735;28;19906;-87
2022/01/31 10:55:31;;;;;;;;;;;5.10;58.50;;;;;;5037967;28;19915;-88
2022/01/31 10:58:04;;;;;;;;;;;5.10;58.60;;;;;;5063945;28;19904;-88
2022/01/31 11:00:37;;;;;;;;;;;5.10;58.70;;;;;;5064729;28;19983;-84
2022/01/31 11:06:40;;;;;;;;;;;5.10;58.90;;;;;;5081103;28;20030;-85
2022/01/31 11:09:08;;;;;;;;;;;5.10;58.70;;;;;;5063842;28;19915;-87
2022/01/31 11:11:37;;;;;;;;;;;5.10;58.80;;;;;;5063318;28;19911;-86
2022/01/31 11:23:12;;;;;;;;;;;5.10;59.00;;;;;;5080983;28;19912;-87
2022/01/31 11:25:40;;;;;;;;;;;5.10;58.90;;;;;;5061595;28;19905;-87
2022/01/31 11:28:06;;;;;;;;;;;5.10;58.80;;;;;;5062477;28;19904;-86
2022/01/31 11:30:32;;;;;;;;;;;5.10;58.80;;;;;;5061027;28;20399;-86
2022/01/31 11:32:58;;;;;;;;;;;5.10;58.60;;;;;;5064907;28;19912;-88
2022/01/31 11:35:23;;;;;;;;;;;5.10;58.60;;;;;;5063313;28;19983;-87
2022/01/31 11:37:49;;;;;;;;;;;5.10;58.30;;;;;;5061768;28;19908;-87
2022/01/31 11:40:16;;;;;;;;;;;4.90;58.40;;;;;;5062969;28;20483;-87
2022/01/31 11:42:42;;;;;;;;;;;5.00;58.50;;;;;;5064507;28;19908;-88
2022/01/31 11:45:08;;;;;;;;;;;5.00;58.40;;;;;;5061958;28;19919;-86
2022/01/31 11:47:35;;;;;;;;;;;5.00;57.90;;;;;;5062724;28;19904;-87
2022/01/31 11:50:02;;;;;;;;;;;4.90;57.80;;;;;;5060983;28;19904;-87
2022/01/31 11:52:32;;;;;;;;;;;4.90;57.90;;;;;;5063134;28;19905;-87
2022/01/31 11:55:03;;;;;;;;;;;4.90;57.90;;;;;;5064246;28;20364;-87
2022/01/31 11:57:30;;;;;;;;;;;4.80;57.80;;;;;;5061811;28;19920;-84
2022/01/31 12:00:00;;;;;;;;;;;4.80;57.60;;;;;;5074230;28;19908;-87
2022/01/31 12:02:29;;;;;;;;;;;4.80;57.90;;;;;;5061924;28;19905;-86
2022/01/31 12:04:59;;;;;;;;;;;4.80;58.10;;;;;;5059202;28;19916;-87
2022/01/31 12:07:54;;;;;;;;;;;4.70;58.20;;;;;;5078295;28;20361;-87
2022/01/31 12:10:39;;;;;;;;;;;4.80;58.20;;;;;;5022297;28;19964;-87
2022/01/31 12:13:26;;;;;;;;;;;4.80;58.30;;;;;;5062531;28;19908;-87
2022/01/31 12:18:49;;;;;;;;;;;4.80;58.30;;;;;;5075908;28;19915;-87
2022/01/31 12:24:26;;;;;;;;;;;4.80;58.10;;;;;;5063366;28;19922;-87
2022/01/31 12:26:53;;;;;;;;;;;4.80;58.10;;;;;;5060196;28;19970;-87
2022/01/31 12:29:35;;;;;;;;;;;4.80;58.10;;;;;;5059331;28;19916;-87
2022/01/31 12:38:33;;;;;;;;;;;4.90;58.10;;;;;;5067185;28;19935;-87
2022/01/31 12:41:05;;;;;;;;;;;5.00;57.90;;;;;;5064187;28;19917;-85
2022/01/31 12:43:51;;;;;;;;;;;5.00;57.80;;;;;;5079454;28;19920;-86
2022/01/31 12:46:17;;;;;;;;;;;5.00;57.60;;;;;;5079521;28;19930;-85
2022/01/31 12:55:13;;;;;;;;;;;5.10;57.70;;;;;;4980656;28;19916;-84
2022/01/31 12:57:46;;;;;;;;;;;5.20;57.60;;;;;;4977202;28;19914;-84
2022/01/31 13:00:12;;;;;;;;;;;5.20;57.50;;;;;;4984841;28;19916;-84
2022/01/31 13:02:48;;;;;;;;;;;5.20;57.50;;;;;;5026796;28;19905;-84
2022/01/31 13:05:13;;;;;;;;;;;5.30;57.40;;;;;;5065421;28;19920;-85
2022/01/31 13:07:39;;;;;;;;;;;5.30;57.30;;;;;;5076058;28;19912;-84
2022/01/31 13:10:09;;;;;;;;;;;5.40;57.40;;;;;;5075233;28;19905;-85
2022/01/31 13:12:35;;;;;;;;;;;5.40;57.10;;;;;;5058214;28;19959;-84
2022/01/31 13:15:01;;;;;;;;;;;5.40;56.80;;;;;;5057644;28;19912;-84
2022/01/31 13:17:27;;;;;;;;;;;5.40;56.80;;;;;;5037203;28;19920;-84
2022/01/31 13:19:54;;;;;;;;;;;5.40;56.70;;;;;;5072321;28;19909;-85
2022/01/31 13:22:27;;;;;;;;;;;5.40;56.70;;;;;;5046716;28;19938;-84
2022/01/31 13:24:54;;;;;;;;;;;5.30;56.90;;;;;;5055002;28;19927;-85
2022/01/31 13:27:28;;;;;;;;;;;5.40;57.00;;;;;;5057157;28;19908;-86
2022/01/31 13:29:55;;;;;;;;;;;5.40;56.70;;;;;;5040204;28;19912;-86
2022/01/31 13:32:29;;;;;;;;;;;5.30;56.70;;;;;;5059477;28;19908;-86
2022/01/31 13:34:59;;;;;;;;;;;5.30;56.80;;;;;;5060180;28;19908;-86
2022/01/31 13:40:37;;;;;;;;;;;5.30;56.90;;;;;;5078698;28;19915;-86
2022/01/31 13:43:09;;;;;;;;;;;5.30;56.80;;;;;;5048728;28;19919;-85
2022/01/31 13:45:45;;;;;;;;;;;5.30;56.40;;;;;;5036050;28;20004;-86
2022/01/31 13:48:27;;;;;;;;;;;5.30;56.20;;;;;;5029614;28;19909;-86
2022/01/31 13:50:59;;;;;;;;;;;5.30;56.30;;;;;;5036735;28;19921;-86
2022/01/31 13:53:36;;;;;;;;;;;5.30;56.10;;;;;;5023707;28;19932;-87
2022/01/31 13:56:03;;;;;;;;;;;5.20;56.10;;;;;;5043798;28;19913;-87
2022/01/31 13:58:31;;;;;;;;;;;5.20;56.20;;;;;;5043618;28;19921;-86
2022/01/31 14:00:56;;;;;;;;;;;5.20;56.30;;;;;;5043156;28;19916;-86
2022/01/31 14:03:23;;;;;;;;;;;5.30;56.20;;;;;;5038684;28;19905;-86
2022/01/31 14:05:51;;;;;;;;;;;5.20;56.10;;;;;;5034052;28;20055;-86
2022/01/31 14:08:16;;;;;;;;;;;5.20;56.10;;;;;;5043051;28;19909;-85
2022/01/31 14:10:43;;;;;;;;;;;5.20;56.20;;;;;;5041963;28;19912;-86
2022/01/31 14:13:10;;;;;;;;;;;5.20;56.30;;;;;;5042987;28;19956;-85
2022/01/31 14:15:41;;;;;;;;;;;5.30;56.30;;;;;;5059424;28;19909;-86
2022/01/31 14:18:07;;;;;;;;;;;5.30;56.30;;;;;;5042853;28;19915;-86
2022/01/31 14:20:33;;;;;;;;;;;5.30;56.10;;;;;;5042019;28;19905;-85
2022/01/31 14:23:16;;;;;;;;;;;5.30;55.90;;;;;;5041967;28;19913;-86
2022/01/31 14:28:49;;;;;;;;;;;5.20;56.10;;;;;;5042403;28;20439;-86
2022/01/31 14:31:15;;;;;;;;;;;5.20;56.20;;;;;;5040093;28;19997;-85
2022/01/31 14:33:42;;;;;;;;;;;5.30;56.30;;;;;;5039657;28;20351;-85
2022/01/31 14:36:10;;;;;;;;;;;5.20;56.20;;;;;;5040095;28;19912;-86
2022/01/31 14:38:43;;;;;;;;;;;5.20;56.20;;;;;;5058922;28;19908;-87
2022/01/31 14:41:25;;;;;;;;;;;5.20;56.20;;;;;;5041075;28;20007;-86
2022/01/31 14:49:21;;;;;;;;;;;5.10;56.30;;;;;;5060121;28;19916;-87
2022/01/31 14:51:49;;;;;;;;;;;5.10;56.30;;;;;;5063612;28;19905;-85
2022/01/31 14:54:15;;;;;;;;;;;5.00;56.30;;;;;;5061660;28;19909;-86
2022/01/31 14:56:41;;;;;;;;;;;5.00;56.30;;;;;;5061976;28;19911;-86
2022/01/31 14:59:07;;;;;;;;;;;4.90;56.30;;;;;;5065082;28;19958;-86
2022/01/31 15:01:42;;;;;;;;;;;4.90;56.30;;;;;;5064839;28;20272;-86
2022/01/31 15:04:18;;;;;;;;;;;4.90;56.30;;;;;;5061794;28;19913;-85
2022/01/31 15:06:44;;;;;;;;;;;4.80;56.30;;;;;;5063478;28;19915;-86
2022/01/31 15:09:10;;;;;;;;;;;4.80;56.40;;;;;;5063327;28;19905;-85
2022/01/31 15:11:39;;;;;;;;;;;4.80;56.40;;;;;;5049543;28;19913;-86
2022/01/31 15:14:05;;;;;;;;;;;4.80;56.50;;;;;;5060877;28;20339;-86
2022/01/31 15:16:31;;;;;;;;;;;4.70;56.60;;;;;;5063053;28;19970;-86
2022/01/31 15:18:56;;;;;;;;;;;4.60;56.60;;;;;;5062794;28;19914;-87
2022/01/31 15:21:49;;;;;;;;;;;4.60;56.70;;;;;;5064447;28;19991;-87
2022/01/31 15:24:19;;;;;;;;;;;4.60;56.70;;;;;;5063551;28;19954;-86
2022/01/31 15:26:44;;;;;;;;;;;4.60;56.90;;;;;;5081715;28;19955;-86
2022/01/31 15:29:10;;;;;;;;;;;4.50;57.00;;;;;;5080939;28;19912;-85
2022/01/31 15:31:35;;;;;;;;;;;4.50;57.10;;;;;;5069462;28;19896;-86
2022/01/31 15:34:02;;;;;;;;;;;4.50;57.10;;;;;;5077396;28;19904;-87
2022/01/31 15:36:28;;;;;;;;;;;4.50;57.20;;;;;;5068656;28;19939;-84
2022/01/31 15:38:53;;;;;;;;;;;4.50;57.30;;;;;;5084016;28;19908;-86
2022/01/31 15:41:19;;;;;;;;;;;4.50;57.40;;;;;;5078977;28;19916;-85
2022/01/31 15:43:47;;;;;;;;;;;4.50;57.40;;;;;;5078276;28;19905;-85
2022/01/31 15:46:13;;;;;;;;;;;4.50;57.50;;;;;;5077676;28;19912;-85
2022/01/31 15:48:38;;;;;;;;;;;4.50;57.60;;;;;;5074075;28;19905;-84
2022/01/31 15:51:04;;;;;;;;;;;4.50;57.60;;;;;;5063217;28;20007;-86
2022/01/31 15:53:29;;;;;;;;;;;4.50;57.70;;;;;;5078125;28;19908;-86
2022/01/31 15:55:55;;;;;;;;;;;4.50;57.80;;;;;;5060305;28;20420;-86
2022/01/31 15:58:22;;;;;;;;;;;4.50;57.80;;;;;;5058877;28;19994;-85
2022/01/31 16:00:50;;;;;;;;;;;4.50;57.80;;;;;;5056597;28;19904;-86
2022/01/31 16:03:29;;;;;;;;;;;4.50;57.90;;;;;;5057680;28;19905;-89
2022/01/31 16:05:55;;;;;;;;;;;4.50;58.00;;;;;;5058194;28;19912;-87
2022/01/31 16:08:20;;;;;;;;;;;4.50;58.10;;;;;;5060096;28;19961;-88
2022/01/31 16:11:07;;;;;;;;;;;4.50;58.20;;;;;;5059950;28;20007;-86
2022/01/31 16:13:43;;;;;;;;;;;4.50;58.30;;;;;;5077421;28;19908;-87
2022/01/31 16:16:12;;;;;;;;;;;4.50;58.40;;;;;;5057242;28;20047;-86
2022/01/31 16:18:38;;;;;;;;;;;4.40;58.40;;;;;;5058333;28;19916;-87
2022/01/31 16:21:04;;;;;;;;;;;4.40;58.50;;;;;;5058155;28;19908;-86
2022/01/31 16:23:30;;;;;;;;;;;4.40;58.50;;;;;;5057058;28;19916;-86